Tuesday, October 21, 2014, 6:17 AM EDT

KMDT, Harrisburg International Airport

Location: Middletown, PA, United States Lat: 40.2
Local Time: 6:17 AM EDT (10:17 GMT) Lon: -76.767
Time Zone: US/Eastern Elev: 308 ft

Show me the last for .
Show Decoded

2014-10-21 05:56 METAR KMDT 210956Z 00000KT 4SM BR BKN095 09/09 A2985 =
2014-10-21 05:15 METAR KMDT 210915Z 06003KT 7SM FEW009 SCT065 OVC095 11/10 A2985 RMK AO2
                 T01060100 =
2014-10-21 04:56 METAR KMDT 210856Z 00000KT 6SM BR BKN075 BKN095 11/11 A2985 =
2014-10-21 03:56 METAR KMDT 210756Z 03003KT 8SM OVC080 11/11 A2985 =
2014-10-21 02:56 METAR KMDT 210656Z 14003KT 10SM BKN075 OVC095 11/10 A2988 RMK AO2 RAB42E52
                 SLP119 P0000 T01110100 =
2014-10-21 01:56 METAR KMDT 210556Z 00000KT 10SM BKN065 OVC080 12/11 A2988 RMK AO2 RAE44 SLPNO
                 P0008 60014 T01170106 10139 20111 58010 =
2014-10-21 00:56 METAR KMDT 210456Z VRB04KT 3SM +RA BR BKN035 OVC075 12/10 A2992 RMK AO2 RAB23
                 SLP132 P0006 T01170100 402390022 =
2014-10-20 23:56 METAR KMDT 210356Z 00000KT 10SM BKN070 OVC095 12/09 A2991 =
2014-10-20 22:56 METAR KMDT 210256Z 16008KT 10SM OVC080 12/08 A2992 RMK AO2 RAB06E18 SLP131 P0000
                 60000 T01220083 58006 =
2014-10-20 21:56 METAR KMDT 210156Z VRB04KT 10SM BKN075 OVC090 13/07 A2994 RMK AO2 RAB07E47
                 SLP140 P0000 T01330072 =
2014-10-20 20:56 METAR KMDT 210056Z 22005KT 10SM SCT080 BKN120 OVC150 14/07 A2994 RMK AO2 SLP139
                 T01390072 =
2014-10-20 19:56 METAR KMDT 202356Z 16004KT 10SM SCT070 OVC090 14/07 A2993 =
2014-10-20 18:56 METAR KMDT 202256Z 00000KT 10SM SCT070 BKN130 OVC250 13/09 A2994 =
2014-10-20 17:56 METAR KMDT 202156Z 23003KT 10SM FEW100 BKN150 OVC250 16/05 A2994 =
2014-10-20 16:56 METAR KMDT 202056Z 21007KT 180V250 10SM FEW100 BKN140 OVC250 16/05 A2993 =
2014-10-20 15:56 METAR KMDT 201956Z 19006KT 10SM BKN150 OVC250 17/05 A2993 =
2014-10-20 14:56 METAR KMDT 201856Z VRB05KT 10SM SCT160 OVC250 17/04 A2994 RMK AO2 SLP141
                 T01720039 =
2014-10-20 14:02 METAR KMDT 201802Z 19007KT 10SM BKN200 17/04 A2997 RMK AO2 T01720044 $ =
2014-10-20 12:56 METAR KMDT 201656Z 19010G19KT 10SM BKN150 BKN250 16/03 A3001 RMK AO2 SLP163
                 T01560028 $ =
2014-10-20 11:56 METAR KMDT 201556Z 16008KT 10SM BKN150 15/03 A3005 RMK AO2 SLP176 T01500033 $ =
2014-10-20 10:56 METAR KMDT 201456Z VRB06KT 10SM SCT100 BKN150 11/04 A3008 RMK AO2 SLP187 6////
                 T01110044 58008 PNO $ =
2014-10-20 09:56 METAR KMDT 201356Z 13005KT 10SM SCT100 BKN150 09/04 A3010 =
2014-10-20 08:56 METAR KMDT 201256Z 10005KT 10SM SCT100 OVC150 07/02 A3011 =
2014-10-20 07:56 METAR KMDT 201156Z 09003KT 10SM CLR 04/02 A3010 =
2014-10-20 06:56 METAR KMDT 201056Z 07004KT 10SM CLR 03/01 A3009 RMK AO2 SLP190 T00330011 =

Support USWX by starting your Amazon purchase here.